Terminal Aerodrome Forecast
Issued by NWS Jackson, MS

Home | Current Version | Previous Version | Text Only | Print | Product List | Glossary On
Versions: 1 2 3 4 5 6 7 8 9 10 11 12
000
FTUS44 KJAN 222341
TAFMEI
TAF
KMEI 222341Z 2300/2324 28007KT P6SM SCT015 BKN050
     FM230400 22005KT P6SM BKN015 OVC025
     FM230700 24003KT P6SM OVC007
     FM231600 26011KT P6SM OVC015
     FM231900 24010KT P6SM BKN025=

USA.gov is the U.S. government's official web portal to all federal, state and local government web resources and services.